Time;durP1;ratioP1;P1;durP2;ratioP2;P2;SDS_P1;SDS_P2;PMS_P1;PMS_P2;Temp;Humidity;BMP_temperature;BMP_pressure;BME280_temperature;BME280_humidity;BME280_pressure;Samples;Min_cycle;Max_cycle;Signal;HPM_P1;HPM_P2
2022/03/01 05:31:21;;;;;;;25.63;14.90;;;;;;;;;;5031459;28;20202;-86
2022/03/01 05:33:50;;;;;;;29.43;16.10;;;;;;;;;;5033517;28;20208;-86
2022/03/01 05:36:18;;;;;;;26.93;16.50;;;;;;;;;;5033585;28;20232;-86
2022/03/01 05:38:45;;;;;;;26.20;15.50;;;;;;;;;;5032958;28;20248;-86
2022/03/01 05:41:15;;;;;;;28.17;15.33;;;;;;;;;;5033321;28;20232;-86
2022/03/01 05:43:42;;;;;;;30.50;16.90;;;;;;;;;;5033136;28;20238;-86
2022/03/01 05:49:18;;;;;;;28.60;17.47;;;;;;;;;;5015577;28;20214;-87
2022/03/01 05:51:46;;;;;;;31.60;17.63;;;;;;;;;;5032969;28;20710;-86
2022/03/01 05:54:19;;;;;;;28.93;16.40;;;;;;;;;;5033426;28;20209;-86
2022/03/01 05:56:57;;;;;;;27.40;16.27;;;;;;;;;;5031885;28;20656;-85
2022/03/01 05:59:33;;;;;;;28.97;16.33;;;;;;;;;;5033741;28;20201;-86
2022/03/01 06:02:00;;;;;;;30.90;18.07;;;;;;;;;;5033250;28;20296;-86
2022/03/01 06:04:50;;;;;;;30.57;17.77;;;;;;;;;;5026480;28;20213;-86
2022/03/01 06:07:24;;;;;;;34.43;18.40;;;;;;;;;;5026250;28;20201;-86
2022/03/01 06:09:52;;;;;;;35.23;18.23;;;;;;;;;;5030051;28;20198;-86
2022/03/01 06:12:28;;;;;;;34.63;17.07;;;;;;;;;;5032319;28;20202;-86
2022/03/01 06:14:57;;;;;;;32.07;17.40;;;;;;;;;;5027318;28;20338;-85
2022/03/01 06:17:27;;;;;;;32.30;17.83;;;;;;;;;;5025777;28;20236;-86
2022/03/01 06:20:42;;;;;;;33.57;18.40;;;;;;;;;;5030977;28;20202;-86
2022/03/01 06:23:11;;;;;;;32.63;18.70;;;;;;;;;;5029191;28;20220;-86
2022/03/01 06:25:46;;;;;;;32.50;19.00;;;;;;;;;;5039346;28;20279;-84
2022/03/01 06:28:27;;;;;;;31.00;18.00;;;;;;;;;;5035066;28;20205;-87
2022/03/01 06:31:28;;;;;;;33.63;18.10;;;;;;;;;;5031726;28;20229;-87
2022/03/01 06:50:36;;;;;;;36.30;19.57;;;;;;;;;;4933817;29;20279;-87
2022/03/01 06:53:04;;;;;;;37.00;18.37;;;;;;;;;;4935238;29;20196;-86
2022/03/01 06:55:31;;;;;;;35.40;19.37;;;;;;;;;;4935365;29;20229;-87
2022/03/01 06:58:02;;;;;;;30.43;17.97;;;;;;;;;;4933507;29;20234;-86
2022/03/01 07:00:36;;;;;;;33.83;18.80;;;;;;;;;;4926867;29;20205;-86
2022/03/01 07:03:07;;;;;;;32.27;17.23;;;;;;;;;;4932284;29;20292;-84
2022/03/01 07:05:38;;;;;;;34.40;18.73;;;;;;;;;;4932148;29;20280;-84
2022/03/01 07:08:38;;;;;;;29.53;16.87;;;;;;;;;;4933435;29;20205;-87
2022/03/01 07:11:10;;;;;;;29.57;15.70;;;;;;;;;;4932010;29;20213;-86
2022/03/01 07:16:21;;;;;;;25.80;15.30;;;;;;;;;;4997439;28;20240;-86
2022/03/01 07:19:17;;;;;;;21.50;15.00;;;;;;;;;;5033121;28;20203;-86
2022/03/01 07:24:32;;;;;;;27.37;16.60;;;;;;;;;;5030062;28;20229;-85
2022/03/01 07:30:03;;;;;;;23.60;15.47;;;;;;;;;;5003093;28;20245;-87
2022/03/01 07:35:13;;;;;;;19.47;13.23;;;;;;;;;;5033454;28;20218;-87
2022/03/01 07:37:40;;;;;;;18.40;13.37;;;;;;;;;;5029393;28;20209;-86
2022/03/01 07:40:13;;;;;;;20.70;12.63;;;;;;;;;;5036250;28;20255;-87
2022/03/01 07:42:40;;;;;;;19.67;14.10;;;;;;;;;;5034078;28;20301;-85
2022/03/01 07:45:08;;;;;;;21.47;14.40;;;;;;;;;;5024064;28;20283;-86
2022/03/01 07:47:38;;;;;;;20.83;14.43;;;;;;;;;;5033516;28;20202;-86
2022/03/01 07:50:06;;;;;;;20.33;14.60;;;;;;;;;;5036186;28;20198;-86
2022/03/01 07:52:35;;;;;;;22.80;14.37;;;;;;;;;;5034768;28;20256;-88
2022/03/01 07:55:03;;;;;;;21.73;14.57;;;;;;;;;;5035310;28;20210;-86
2022/03/01 07:57:31;;;;;;;19.80;15.13;;;;;;;;;;5035391;28;20202;-87
2022/03/01 07:59:59;;;;;;;23.07;15.13;;;;;;;;;;5035528;28;20202;-86
2022/03/01 08:02:26;;;;;;;20.47;14.37;;;;;;;;;;5036079;28;20292;-86
2022/03/01 08:04:54;;;;;;;21.67;13.93;;;;;;;;;;5035127;28;20248;-85
2022/03/01 08:07:24;;;;;;;21.33;13.87;;;;;;;;;;5029547;28;20214;-88
2022/03/01 08:09:58;;;;;;;21.47;13.70;;;;;;;;;;5035266;28;20208;-88
2022/03/01 08:12:25;;;;;;;17.67;12.80;;;;;;;;;;5034930;28;20208;-88
2022/03/01 08:14:53;;;;;;;18.17;12.17;;;;;;;;;;5034388;28;20216;-86
2022/03/01 08:17:20;;;;;;;24.80;13.90;;;;;;;;;;5034510;28;20206;-88
2022/03/01 08:19:50;;;;;;;22.27;12.57;;;;;;;;;;5035553;28;20661;-88
2022/03/01 08:22:21;;;;;;;21.97;13.20;;;;;;;;;;5029742;28;20202;-91
2022/03/01 08:24:50;;;;;;;23.07;13.73;;;;;;;;;;5034693;28;20309;-89
2022/03/01 08:27:20;;;;;;;19.43;12.70;;;;;;;;;;5035598;28;20288;-87
2022/03/01 08:29:48;;;;;;;19.67;13.67;;;;;;;;;;5036595;28;20233;-89
2022/03/01 08:32:16;;;;;;;20.13;13.30;;;;;;;;;;5035824;28;20208;-87
2022/03/01 08:34:43;;;;;;;19.63;13.10;;;;;;;;;;5036464;28;20209;-87
2022/03/01 08:37:18;;;;;;;19.37;12.27;;;;;;;;;;5037790;28;20240;-92
2022/03/01 08:39:47;;;;;;;18.87;12.73;;;;;;;;;;5039109;28;20210;-91
2022/03/01 08:42:24;;;;;;;17.67;12.93;;;;;;;;;;5041863;28;20206;-91
2022/03/01 08:48:21;;;;;;;19.03;11.57;;;;;;;;;;5049777;28;20206;-90
2022/03/01 08:50:49;;;;;;;16.77;11.73;;;;;;;;;;5045150;28;20201;-88
2022/03/01 08:53:16;;;;;;;17.53;11.77;;;;;;;;;;5048081;28;20186;-87
2022/03/01 08:55:43;;;;;;;15.80;11.17;;;;;;;;;;5055422;28;20214;-86
2022/03/01 08:58:11;;;;;;;14.70;12.70;;;;;;;;;;5047427;28;20451;-90
2022/03/01 09:00:41;;;;;;;15.03;11.07;;;;;;;;;;5047931;28;20202;-86
2022/03/01 09:03:08;;;;;;;15.40;10.43;;;;;;;;;;5037819;28;20217;-87
2022/03/01 09:05:37;;;;;;;14.37;10.73;;;;;;;;;;5035299;28;20222;-88
2022/03/01 09:08:05;;;;;;;12.83;10.03;;;;;;;;;;5034586;28;20233;-87
2022/03/01 09:10:34;;;;;;;18.50;10.83;;;;;;;;;;5034679;28;20280;-87
2022/03/01 09:13:02;;;;;;;12.87;9.60;;;;;;;;;;5030676;28;20198;-87
2022/03/01 09:15:31;;;;;;;13.53;10.07;;;;;;;;;;5033294;28;20276;-87
2022/03/01 09:17:58;;;;;;;15.27;9.93;;;;;;;;;;5033607;28;20205;-87
2022/03/01 09:20:35;;;;;;;14.60;10.47;;;;;;;;;;5032631;28;20202;-85
2022/03/01 09:23:04;;;;;;;15.03;10.63;;;;;;;;;;5030492;28;20221;-88
2022/03/01 09:31:30;;;;;;;15.93;10.90;;;;;;;;;;5014093;28;20224;-90
2022/03/01 09:34:01;;;;;;;11.97;9.20;;;;;;;;;;5028435;28;20202;-88
2022/03/01 09:36:43;;;;;;;15.97;10.63;;;;;;;;;;5029930;28;20272;-89
2022/03/01 09:39:21;;;;;;;14.23;10.27;;;;;;;;;;4970465;28;20228;-89
2022/03/01 12:23:22;;;;;;;11.07;7.43;;;;;;;;;;5033340;28;20193;-94
2022/03/01 13:12:37;;;;;;;10.53;7.60;;;;;;;;;;5030593;28;20221;-86
2022/03/01 15:06:46;;;;;;;8.63;7.03;;;;;;;;;;5010225;28;20226;-88
2022/03/01 16:24:28;;;;;;;11.13;7.60;;;;;;;;;;4784688;29;20342;-91
